Aérodrome :
LOGIN :

S'inscrire | Disclaimer

   EN    FR    IT 

 










Légende :    VFR   VFR Marginal   IFR   IFR Intensif   IFR Très Intensif
Visi : 
Plafond : 
>= 8 km
>= 3000ft
5 à 8 km
1000 à 3000 ft
1500m à 5 km
500 à 1000 ft
800 à 1500m
200 à 500 ft
< 800m
< 200 ft
Symboles :   Orages  Brouillard  Fortes neiges  Fortes précipitations  Vent > 20 kt
SIGMETs :   Divers  Orages  Givrage  Turbulence  Onde Orograph.  Cendres Volcan.







- Altitude de l'aérodrome : 63 ft
- Code IATA : BZM


EHWO - Woensdrecht Airbase

DERNIER METAR :
  • 260455Z AUTO 20010KT 170V250 9999 FEW015CB OVC017 07/05 Q1010 REDZ WHT

METARs EXPIRÉS :
  • 260432Z AUTO 21008KT 170V240 9999 DZ FEW015CB BKN022 OVC028 07/05 Q1010 WHT
  • 260425Z AUTO 21009KT 170V240 9999 -RADZ FEW015CB BKN027 OVC030 07/05 Q1010 RERA REDZ BLU
  • 260418Z AUTO 21011KT 170V240 9999 -RA FEW015CB SCT021 BKN024 OVC030 07/05 Q1010 WHT
  • 260400Z AUTO 21010KT 170V250 9999 +DZ FEW015CB BKN024 OVC028 08/05 Q1010 WHT
  • 260355Z AUTO 21011KT 170V250 9999 -RA FEW015CB OVC029 08/05 Q1010 RERA REDZ BLU
  • 260341Z AUTO 22012KT 180V250 9999 -RA FEW015CB OVC030 08/04 Q1010 BLU
  • 260335Z AUTO 22014KT 170V260 9999 +DZRA FEW015CB OVC032 08/04 Q1010 BLU
  • 260325Z AUTO 22013KT 170V260 9999 DZ FEW018CB OVC032 08/04 Q1010 BLU
  • 260255Z AUTO 21011KT 170V260 9999 OVC036 08/04 Q1011 BLU
  • 260225Z AUTO 22012KT 180V250 9999 OVC039 08/04 Q1011 BLU

Prévision TAF périmée.
Pas de NOTAMs connus pour ce terrain.



MET'MAP, la Météo Aéronautique d'un coup d'oeil ! - Copyright ORBIFLY Décembre 2007 - Disclaimer

ORBIFLY MET'MAP TEAM :

Programmation & Développement : Alexandra Zaïnal
Conception & Développement : Baudouin d'Aumeries
Co-Programmation & Développement : Marc-Olivier Méhu
Soutien technique & logistique : Manuel Goepfert

Contact : metmap@orbifly.com




SOURCES & CREDITS :

   NOAA